createdAt,value
2023-03-26T00:01:36.440Z,82.23
2023-03-26T00:04:06.639Z,83.43
2023-03-26T00:06:38.888Z,83.12
2023-03-26T00:09:09.041Z,83.46
2023-03-26T00:11:37.395Z,82.82
2023-03-26T00:14:06.902Z,83.11
2023-03-26T00:16:35.495Z,82.84
2023-03-26T00:19:04.038Z,82.67
2023-03-26T00:21:32.394Z,82.99
2023-03-26T00:24:04.407Z,83.43
2023-03-26T00:26:33.538Z,82.25
2023-03-26T00:29:03.519Z,82.88
2023-03-26T00:31:34.046Z,83.25
2023-03-26T00:34:03.662Z,83.39
2023-03-26T00:36:35.783Z,83.46
2023-03-26T00:39:05.546Z,83.54
2023-03-26T00:41:36.790Z,83.07
2023-03-26T00:44:04.871Z,83.38
2023-03-26T00:46:34.518Z,83.17
2023-03-26T00:49:03.988Z,83.07
2023-03-26T00:51:33.763Z,83.00
2023-03-26T00:54:01.797Z,82.39
2023-03-26T00:56:30.786Z,82.15
2023-03-26T00:59:00.149Z,82.15
2023-03-26T01:01:30.292Z,82.09
2023-03-26T01:04:18.820Z,82.05
2023-03-26T01:06:47.455Z,81.85
2023-03-26T01:09:17.318Z,82.35
2023-03-26T01:11:46.179Z,82.79
2023-03-26T01:14:17.659Z,82.91
2023-03-26T01:16:50.002Z,83.29
2023-03-26T01:19:25.734Z,83.13
2023-03-26T01:21:54.094Z,83.73
2023-03-26T01:24:23.698Z,83.86
2023-03-26T01:27:18.613Z,84.15
2023-03-26T01:29:52.611Z,84.28
2023-03-26T01:32:33.065Z,84.54
2023-03-26T01:35:14.089Z,84.08
2023-03-26T01:37:48.289Z,84.08
2023-03-26T01:40:23.416Z,83.76
2023-03-26T01:42:56.416Z,83.20
2023-03-26T01:45:28.608Z,83.27
2023-03-26T01:47:58.446Z,83.10
2023-03-26T01:50:27.318Z,82.76
2023-03-26T01:52:55.682Z,81.69
2023-03-26T01:55:27.954Z,81.30
2023-03-26T01:58:01.614Z,80.89
2023-03-26T02:00:31.465Z,80.86
2023-03-26T02:03:06.349Z,80.45
2023-03-26T02:05:37.802Z,80.57
2023-03-26T02:08:11.976Z,80.35
2023-03-26T02:10:44.013Z,80.17
2023-03-26T02:13:12.864Z,80.06
2023-03-26T02:15:41.488Z,79.98
2023-03-26T02:18:10.866Z,79.84
2023-03-26T02:20:39.037Z,79.98
2023-03-26T02:23:08.753Z,79.84
2023-03-26T02:25:39.830Z,79.62
2023-03-26T02:28:09.634Z,79.17
2023-03-26T02:30:40.193Z,79.58
2023-03-26T02:33:08.806Z,79.89
2023-03-26T02:35:44.949Z,80.13
2023-03-26T02:38:14.825Z,79.90
2023-03-26T02:40:44.814Z,80.10
2023-03-26T02:43:16.783Z,79.93
2023-03-26T02:45:47.672Z,79.97
2023-03-26T02:48:44.409Z,79.87
2023-03-26T02:51:21.078Z,79.19
2023-03-26T02:54:01.114Z,79.68
2023-03-26T02:56:58.188Z,79.15
2023-03-26T02:59:46.314Z,79.34
2023-03-26T03:02:40.487Z,79.74
2023-03-26T03:05:31.297Z,79.26
2023-03-26T03:08:14.358Z,79.28
2023-03-26T03:10:59.620Z,79.56
2023-03-26T03:13:43.039Z,79.08
2023-03-26T03:16:12.790Z,78.62
2023-03-26T03:18:40.930Z,78.31
2023-03-26T03:21:10.227Z,77.68
2023-03-26T03:23:38.803Z,77.69
2023-03-26T03:26:17.171Z,78.22
2023-03-26T03:28:51.683Z,77.96
2023-03-26T03:31:21.624Z,78.05
2023-03-26T03:33:49.638Z,77.26
2023-03-26T03:36:21.994Z,77.10
2023-03-26T03:39:02.265Z,77.36
2023-03-26T03:41:31.164Z,77.78
2023-03-26T03:44:01.721Z,77.66
2023-03-26T03:46:33.692Z,77.66
2023-03-26T03:49:02.455Z,77.42
2023-03-26T03:51:37.165Z,77.57
2023-03-26T03:54:11.279Z,77.36
2023-03-26T03:56:59.758Z,77.24
2023-03-26T03:59:38.847Z,77.11
2023-03-26T04:02:26.081Z,76.83
2023-03-26T04:04:58.497Z,77.50
2023-03-26T04:07:27.523Z,77.23
2023-03-26T04:10:09.612Z,76.90
2023-03-26T04:13:09.912Z,76.63
2023-03-26T04:15:53.640Z,76.82
2023-03-26T04:18:23.574Z,77.35
2023-03-26T04:20:51.643Z,76.76
2023-03-26T04:23:29.017Z,76.73
2023-03-26T04:26:05.009Z,77.00
2023-03-26T04:29:04.780Z,77.10
2023-03-26T04:31:34.042Z,77.02
2023-03-26T04:34:08.425Z,77.20
2023-03-26T04:36:46.279Z,77.19
2023-03-26T04:39:16.388Z,77.90
2023-03-26T04:42:11.052Z,77.81
2023-03-26T04:44:52.247Z,77.56
2023-03-26T04:47:20.866Z,78.10
2023-03-26T04:49:50.565Z,77.50
2023-03-26T04:52:19.306Z,77.75
2023-03-26T04:55:23.077Z,78.52
2023-03-26T04:58:03.392Z,78.69
2023-03-26T05:01:09.950Z,78.17
2023-03-26T05:03:41.986Z,78.45
2023-03-26T05:06:15.383Z,78.40
2023-03-26T05:08:43.574Z,78.36
2023-03-26T05:11:20.095Z,78.50
2023-03-26T05:13:48.340Z,78.31
2023-03-26T05:16:18.138Z,78.46
2023-03-26T05:18:54.512Z,78.06
2023-03-26T05:21:25.033Z,78.22
2023-03-26T05:23:53.282Z,77.25
2023-03-26T05:26:23.196Z,77.64
2023-03-26T05:28:52.570Z,77.88
2023-03-26T05:31:35.707Z,78.02
2023-03-26T05:34:04.806Z,77.95
2023-03-26T05:36:34.553Z,78.38
2023-03-26T05:39:26.141Z,78.14
2023-03-26T05:42:14.470Z,78.67
2023-03-26T05:44:57.271Z,78.61
2023-03-26T05:47:29.329Z,79.36
2023-03-26T05:49:58.192Z,80.08
2023-03-26T05:52:28.620Z,80.67
2023-03-26T05:55:14.973Z,80.47
2023-03-26T05:58:06.153Z,79.76
2023-03-26T06:01:08.422Z,79.42
2023-03-26T06:03:59.617Z,79.27
2023-03-26T06:06:32.326Z,78.59
2023-03-26T06:09:04.462Z,78.57
2023-03-26T06:11:32.892Z,80.24
2023-03-26T06:14:02.511Z,80.46
2023-03-26T06:16:31.035Z,80.78
2023-03-26T06:19:19.649Z,80.91
2023-03-26T06:21:59.570Z,80.99
2023-03-26T06:24:34.765Z,80.98
2023-03-26T06:27:21.759Z,81.49
2023-03-26T06:30:16.681Z,81.44
2023-03-26T06:32:55.720Z,81.27
2023-03-26T06:35:29.827Z,80.85
2023-03-26T06:37:58.359Z,80.35
2023-03-26T06:40:28.959Z,80.80
2023-03-26T06:43:23.325Z,80.72
2023-03-26T06:46:01.093Z,80.57
2023-03-26T06:48:57.856Z,80.68
2023-03-26T06:51:52.415Z,80.48
2023-03-26T06:54:20.474Z,79.45
2023-03-26T06:56:59.849Z,78.78
2023-03-26T06:59:54.385Z,78.80
2023-03-26T07:02:41.210Z,78.52
2023-03-26T07:05:27.896Z,78.41
2023-03-26T07:08:31.827Z,78.84
2023-03-26T07:11:19.534Z,78.90
2023-03-26T07:14:14.926Z,78.38
2023-03-26T07:16:52.698Z,77.92
2023-03-26T07:19:21.075Z,78.73
2023-03-26T07:21:49.965Z,79.47
2023-03-26T07:24:44.635Z,80.67
2023-03-26T07:27:38.469Z,81.29
2023-03-26T07:30:11.561Z,81.34
2023-03-26T07:33:01.103Z,82.69
2023-03-26T07:35:48.024Z,82.90
2023-03-26T07:38:34.444Z,81.90
2023-03-26T07:41:36.337Z,82.39
2023-03-26T07:44:35.744Z,83.04
2023-03-26T07:47:46.952Z,83.15
2023-03-26T07:50:20.520Z,83.33
2023-03-26T07:53:07.738Z,83.27
2023-03-26T07:56:13.292Z,84.35
2023-03-26T07:58:54.125Z,85.16
2023-03-26T08:01:51.231Z,84.61
2023-03-26T08:04:48.819Z,84.98
2023-03-26T08:07:42.322Z,85.73
2023-03-26T08:10:38.070Z,85.94
2023-03-26T08:13:17.748Z,86.19
2023-03-26T08:15:53.472Z,86.54
2023-03-26T08:18:30.424Z,87.58
2023-03-26T08:21:04.269Z,88.05
2023-03-26T08:23:38.111Z,87.50
2023-03-26T08:26:27.434Z,87.69
2023-03-26T08:29:04.843Z,88.81
2023-03-26T08:31:35.240Z,89.09
2023-03-26T08:34:03.388Z,89.04
2023-03-26T08:36:33.343Z,88.16
2023-03-26T08:39:01.400Z,88.36
2023-03-26T08:41:53.624Z,87.64
2023-03-26T08:44:59.595Z,87.14
2023-03-26T08:48:05.308Z,87.02
2023-03-26T08:51:04.036Z,86.61
2023-03-26T08:53:48.419Z,85.77
2023-03-26T08:56:21.652Z,84.98
2023-03-26T08:59:17.478Z,84.65
2023-03-26T09:02:07.852Z,84.62
2023-03-26T09:05:25.902Z,84.11
2023-03-26T09:08:06.941Z,84.43
2023-03-26T09:10:52.820Z,82.76
2023-03-26T09:13:52.933Z,82.51
2023-03-26T09:16:53.470Z,83.01
2023-03-26T09:19:37.439Z,82.63
2023-03-26T09:22:45.152Z,81.44
2023-03-26T09:25:34.493Z,81.49
2023-03-26T09:28:47.813Z,80.57
2023-03-26T09:31:43.652Z,78.25
2023-03-26T09:34:27.422Z,78.78
2023-03-26T09:36:57.330Z,76.69
2023-03-26T09:39:37.754Z,75.22
2023-03-26T09:42:11.766Z,76.77
2023-03-26T09:45:00.399Z,75.72
2023-03-26T09:47:40.816Z,76.12
2023-03-26T09:50:27.154Z,76.77
2023-03-26T09:53:03.936Z,76.62
2023-03-26T09:55:42.036Z,75.57
2023-03-26T09:58:28.231Z,77.03
2023-03-26T10:01:00.911Z,76.99
2023-03-26T10:03:42.461Z,76.42
2023-03-26T10:06:23.648Z,78.30
2023-03-26T10:09:06.700Z,77.71
2023-03-26T10:11:53.642Z,78.63
2023-03-26T10:14:26.803Z,79.43
2023-03-26T10:17:03.112Z,78.10
2023-03-26T10:19:53.160Z,78.37
2023-03-26T10:22:33.419Z,78.09
2023-03-26T10:25:16.574Z,76.96
2023-03-26T10:27:49.723Z,77.70
2023-03-26T10:30:31.189Z,77.39
2023-03-26T10:33:09.712Z,74.76
2023-03-26T10:35:46.608Z,75.68
2023-03-26T10:38:19.991Z,76.73
2023-03-26T10:40:58.690Z,77.29
2023-03-26T10:44:07.456Z,76.37
2023-03-26T10:47:01.134Z,77.42
2023-03-26T10:49:49.129Z,77.40
2023-03-26T10:52:20.858Z,78.41
2023-03-26T10:54:56.193Z,81.18
2023-03-26T10:57:30.745Z,79.62
2023-03-26T10:59:59.635Z,80.94
2023-03-26T11:02:30.730Z,81.73
2023-03-26T11:05:19.492Z,82.02
2023-03-26T11:07:53.707Z,81.49
2023-03-26T11:10:28.327Z,82.26
2023-03-26T11:13:00.221Z,82.28
2023-03-26T11:15:32.258Z,81.41
2023-03-26T11:18:07.537Z,79.73
2023-03-26T11:20:39.966Z,79.55
2023-03-26T11:23:23.117Z,79.55
2023-03-26T11:26:00.583Z,77.10
2023-03-26T11:28:39.068Z,77.39
2023-03-26T11:31:14.379Z,73.99
2023-03-26T11:33:47.378Z,75.05
2023-03-26T11:36:19.278Z,76.01
2023-03-26T11:38:50.673Z,74.16
2023-03-26T11:41:25.408Z,73.55
2023-03-26T11:44:05.297Z,72.88
2023-03-26T11:46:37.900Z,73.43
2023-03-26T11:49:11.030Z,71.32
2023-03-26T11:51:40.520Z,68.10
2023-03-26T11:54:13.227Z,68.02
2023-03-26T11:57:05.387Z,67.21
2023-03-26T11:59:45.279Z,64.80
2023-03-26T12:02:29.830Z,65.35
2023-03-26T12:05:13.647Z,60.69
2023-03-26T12:07:47.508Z,61.09
2023-03-26T12:10:26.505Z,60.07
2023-03-26T12:12:57.436Z,57.82
2023-03-26T12:15:26.088Z,56.98
2023-03-26T12:17:56.435Z,57.83
2023-03-26T12:20:38.821Z,56.99
2023-03-26T12:23:08.093Z,56.60
2023-03-26T12:25:39.813Z,56.09
2023-03-26T12:28:19.291Z,55.74
2023-03-26T12:30:54.231Z,54.77
2023-03-26T12:33:26.807Z,53.75
2023-03-26T12:35:55.758Z,54.85
2023-03-26T12:38:27.257Z,51.55
2023-03-26T12:41:07.962Z,51.58
2023-03-26T12:44:50.407Z,50.91
2023-03-26T12:47:56.642Z,51.21
2023-03-26T12:49:21.255Z,49.79
2023-03-26T12:51:51.769Z,48.52
2023-03-26T12:54:29.160Z,48.44
2023-03-26T12:57:12.059Z,49.62
2023-03-26T12:59:55.017Z,47.60
2023-03-26T13:02:50.084Z,49.38
2023-03-26T13:05:29.381Z,49.42
2023-03-26T13:08:06.823Z,48.56
2023-03-26T13:10:44.377Z,49.79
2023-03-26T13:13:29.027Z,49.31
2023-03-26T13:16:02.032Z,48.00
2023-03-26T13:18:38.572Z,46.37
2023-03-26T13:21:11.249Z,44.17
2023-03-26T13:23:46.582Z,44.45
2023-03-26T13:26:24.829Z,40.75
2023-03-26T13:29:02.120Z,40.77
2023-03-26T13:31:35.252Z,41.71
2023-03-26T13:34:11.160Z,42.83
2023-03-26T13:36:47.775Z,43.12
2023-03-26T13:39:23.405Z,44.20
2023-03-26T13:42:00.948Z,43.68
2023-03-26T13:44:38.127Z,44.13
2023-03-26T13:47:08.891Z,45.09
2023-03-26T13:49:40.835Z,45.07
2023-03-26T13:52:12.477Z,46.02
2023-03-26T13:54:44.484Z,45.14
2023-03-26T13:57:16.732Z,46.53
2023-03-26T13:59:49.287Z,45.23
2023-03-26T14:02:22.158Z,44.63
2023-03-26T14:04:52.625Z,44.78
2023-03-26T14:07:25.423Z,45.45
2023-03-26T14:09:56.208Z,45.94
2023-03-26T14:12:38.997Z,46.57
2023-03-26T14:15:12.561Z,46.88
2023-03-26T14:17:47.404Z,47.41
2023-03-26T14:20:47.596Z,48.05
2023-03-26T14:23:32.794Z,48.83
2023-03-26T14:26:11.920Z,49.54
2023-03-26T14:28:59.513Z,50.08
2023-03-26T14:31:34.190Z,50.60
2023-03-26T14:34:12.683Z,50.26
2023-03-26T14:37:07.205Z,51.15
2023-03-26T14:39:56.170Z,49.86
2023-03-26T14:42:26.707Z,51.99
2023-03-26T14:45:10.393Z,51.77
2023-03-26T14:47:45.705Z,50.94
2023-03-26T14:50:48.240Z,53.62
2023-03-26T14:53:23.469Z,55.58
2023-03-26T14:56:15.069Z,56.68
2023-03-26T14:59:20.896Z,57.21
2023-03-26T15:02:22.329Z,58.99
2023-03-26T15:05:23.823Z,57.66
2023-03-26T15:08:40.150Z,59.36
2023-03-26T15:11:24.122Z,59.65
2023-03-26T15:14:02.013Z,59.46
2023-03-26T15:17:08.110Z,61.09
2023-03-26T15:20:10.522Z,61.69
2023-03-26T15:23:04.056Z,61.59
2023-03-26T15:25:50.339Z,61.66
2023-03-26T15:29:09.512Z,62.00
2023-03-26T15:31:47.373Z,63.31
2023-03-26T15:34:42.284Z,63.33
2023-03-26T15:37:43.608Z,64.85
2023-03-26T15:40:33.756Z,66.23
2023-03-26T15:43:09.728Z,67.54
2023-03-26T15:45:38.560Z,68.68
2023-03-26T15:48:45.513Z,68.64
2023-03-26T15:51:24.369Z,68.84
2023-03-26T15:53:56.391Z,69.72
2023-03-26T15:56:38.576Z,69.86
2023-03-26T15:59:11.528Z,70.20
2023-03-26T16:01:47.030Z,70.29
2023-03-26T16:04:26.486Z,70.85
2023-03-26T16:07:02.819Z,71.00
2023-03-26T16:09:43.253Z,71.89
2023-03-26T16:12:34.828Z,72.68
2023-03-26T16:15:24.443Z,72.76
2023-03-26T16:18:32.370Z,72.88
2023-03-26T16:21:31.402Z,73.38
2023-03-26T16:24:23.494Z,73.87
2023-03-26T16:27:08.087Z,75.54
2023-03-26T16:30:20.613Z,75.48
2023-03-26T16:32:56.136Z,74.93
2023-03-26T16:35:40.093Z,75.34
2023-03-26T16:38:14.658Z,75.64
2023-03-26T16:41:00.109Z,75.39
2023-03-26T16:43:39.752Z,74.62
2023-03-26T16:46:11.159Z,74.78
2023-03-26T16:48:48.874Z,73.91
2023-03-26T16:51:23.952Z,73.91
2023-03-26T16:53:58.206Z,73.62
2023-03-26T16:56:32.112Z,73.27
2023-03-26T16:59:03.215Z,73.46
2023-03-26T17:01:41.423Z,73.32
2023-03-26T17:04:17.173Z,74.37
2023-03-26T17:07:05.506Z,74.16
2023-03-26T17:09:41.371Z,74.42
2023-03-26T17:12:25.784Z,73.69
2023-03-26T17:15:05.583Z,73.19
2023-03-26T17:17:54.063Z,74.08
2023-03-26T17:20:33.917Z,73.68
2023-03-26T17:23:11.494Z,73.73
2023-03-26T17:25:45.737Z,74.13
2023-03-26T17:28:29.512Z,75.11
2023-03-26T17:31:06.554Z,76.02
2023-03-26T17:33:38.515Z,76.24
2023-03-26T17:36:43.447Z,76.11
2023-03-26T17:40:16.403Z,77.12
2023-03-26T17:43:02.833Z,76.98
2023-03-26T17:45:34.659Z,77.51
2023-03-26T17:48:08.012Z,76.78
2023-03-26T17:50:44.028Z,76.48
2023-03-26T17:53:18.270Z,77.01
2023-03-26T17:55:51.136Z,76.58
2023-03-26T17:58:26.887Z,76.13
2023-03-26T18:01:00.385Z,76.09
2023-03-26T18:03:31.126Z,76.31
2023-03-26T18:06:05.463Z,77.41
2023-03-26T18:08:43.160Z,78.10
2023-03-26T18:11:23.898Z,79.35
2023-03-26T18:14:21.207Z,80.21
2023-03-26T18:16:53.922Z,81.13
2023-03-26T18:19:23.386Z,81.11
2023-03-26T18:21:52.803Z,80.67
2023-03-26T18:24:24.391Z,81.27
2023-03-26T18:26:58.321Z,81.82
2023-03-26T18:29:29.020Z,81.59
2023-03-26T18:32:00.387Z,81.16
2023-03-26T18:34:31.727Z,82.19
2023-03-26T18:37:10.879Z,81.72
2023-03-26T18:39:39.355Z,81.74
2023-03-26T18:42:22.382Z,82.15
2023-03-26T18:44:54.774Z,82.47
2023-03-26T18:47:29.267Z,82.30
2023-03-26T18:49:58.509Z,82.50
2023-03-26T18:52:29.226Z,83.11
2023-03-26T18:54:59.037Z,82.89
2023-03-26T18:57:30.199Z,82.57
2023-03-26T19:00:10.223Z,81.82
2023-03-26T19:02:39.108Z,81.83
2023-03-26T19:05:10.725Z,80.38
2023-03-26T19:07:39.156Z,80.40
2023-03-26T19:10:08.858Z,80.95
2023-03-26T19:12:39.669Z,80.62
2023-03-26T19:15:11.439Z,79.73
2023-03-26T19:17:41.629Z,79.49
2023-03-26T19:20:16.160Z,79.69
2023-03-26T19:22:45.408Z,79.30
2023-03-26T19:25:21.531Z,78.58
2023-03-26T19:27:51.735Z,78.55
2023-03-26T19:30:28.450Z,78.35
2023-03-26T19:33:13.017Z,77.88
2023-03-26T19:35:43.075Z,77.41
2023-03-26T19:38:22.334Z,78.02
2023-03-26T19:40:51.854Z,77.11
2023-03-26T19:43:21.394Z,77.52
2023-03-26T19:45:59.729Z,76.80
2023-03-26T19:48:45.661Z,76.61
2023-03-26T19:51:22.701Z,76.56
2023-03-26T19:53:54.861Z,77.98
2023-03-26T19:56:25.311Z,78.31
2023-03-26T19:58:55.525Z,78.95
2023-03-26T20:01:26.678Z,79.16
2023-03-26T20:03:57.674Z,80.71
2023-03-26T20:06:41.879Z,81.70
2023-03-26T20:09:11.254Z,82.02
2023-03-26T20:11:40.552Z,83.29
2023-03-26T20:14:14.663Z,83.70
2023-03-26T20:16:45.310Z,84.06
2023-03-26T20:19:15.568Z,84.65
2023-03-26T20:21:44.773Z,85.76
2023-03-26T20:24:15.104Z,85.58
2023-03-26T20:26:43.487Z,86.30
2023-03-26T20:29:13.784Z,86.32
2023-03-26T20:31:42.695Z,86.26
2023-03-26T20:34:16.699Z,87.85
2023-03-26T20:36:46.064Z,87.82
2023-03-26T20:39:14.659Z,87.92
2023-03-26T20:41:46.136Z,88.52
2023-03-26T20:44:17.633Z,89.21
2023-03-26T20:46:48.178Z,88.78
2023-03-26T20:49:17.837Z,89.21
2023-03-26T20:51:46.528Z,88.88
2023-03-26T20:54:17.534Z,88.81
2023-03-26T20:56:47.769Z,89.42
2023-03-26T20:59:21.638Z,89.07
2023-03-26T21:01:50.911Z,89.21
2023-03-26T21:04:19.877Z,89.68
2023-03-26T21:06:48.290Z,90.72
2023-03-26T21:09:18.952Z,91.29
2023-03-26T21:11:53.836Z,91.57
2023-03-26T21:14:26.310Z,91.82
2023-03-26T21:16:55.070Z,91.85
2023-03-26T21:19:24.062Z,90.66
2023-03-26T21:22:04.977Z,91.14
2023-03-26T21:24:43.484Z,92.41
2023-03-26T21:27:17.466Z,91.95
2023-03-26T21:29:47.604Z,92.38
2023-03-26T21:32:16.481Z,91.97
2023-03-26T21:34:55.508Z,93.03
2023-03-26T21:37:27.097Z,92.08
2023-03-26T21:39:55.839Z,92.62
2023-03-26T21:42:26.688Z,92.60
2023-03-26T21:44:56.751Z,93.39
2023-03-26T21:47:25.726Z,93.77
2023-03-26T21:49:54.633Z,94.84
2023-03-26T21:52:23.694Z,94.40
2023-03-26T21:54:52.585Z,94.91
2023-03-26T21:57:33.860Z,94.69
2023-03-26T22:00:12.541Z,95.11
2023-03-26T22:02:46.822Z,94.75
2023-03-26T22:05:16.421Z,92.89
2023-03-26T22:07:52.777Z,92.08
2023-03-26T22:10:21.486Z,91.35
2023-03-26T22:12:49.778Z,92.16
2023-03-26T22:15:19.899Z,90.03
2023-03-26T22:17:53.713Z,90.67
2023-03-26T22:20:25.235Z,91.20
2023-03-26T22:22:55.265Z,90.60
2023-03-26T22:25:24.284Z,91.14
2023-03-26T22:27:53.875Z,91.37
2023-03-26T22:30:23.278Z,92.13
2023-03-26T22:32:51.706Z,92.75
2023-03-26T22:35:20.411Z,93.20
2023-03-26T22:37:48.862Z,92.70
2023-03-26T22:40:17.887Z,93.61
2023-03-26T22:42:46.363Z,93.77
2023-03-26T22:45:14.482Z,93.75
2023-03-26T22:47:44.847Z,93.59
2023-03-26T22:50:12.995Z,93.74
2023-03-26T22:52:41.535Z,92.91
2023-03-26T22:55:10.934Z,92.55
2023-03-26T22:57:39.686Z,91.53
2023-03-26T23:00:16.111Z,90.43
2023-03-26T23:02:46.308Z,89.50
2023-03-26T23:05:14.644Z,90.04
2023-03-26T23:07:43.457Z,89.65
2023-03-26T23:10:12.146Z,88.49
2023-03-26T23:12:41.358Z,88.25
2023-03-26T23:15:10.731Z,88.25
2023-03-26T23:17:39.330Z,88.89
2023-03-26T23:20:15.465Z,87.93
2023-03-26T23:22:44.437Z,88.36
2023-03-26T23:25:13.477Z,88.17
2023-03-26T23:27:41.904Z,88.30
2023-03-26T23:30:11.702Z,88.67
2023-03-26T23:32:41.026Z,88.91
2023-03-26T23:35:11.200Z,89.77
2023-03-26T23:37:42.155Z,90.69
2023-03-26T23:40:12.446Z,91.27
2023-03-26T23:42:40.801Z,91.95
2023-03-26T23:45:09.464Z,92.55
2023-03-26T23:47:42.048Z,93.12
2023-03-26T23:50:12.804Z,92.59
2023-03-26T23:52:41.249Z,92.56
2023-03-26T23:55:09.911Z,92.50
2023-03-26T23:57:38.223Z,91.60
